sensor_id;sensor_type;location;lat;lon;timestamp;temperature;humidity
3602;DHT22;1815;50.950;6.920;2023-06-22T00:02:18;25.60;70.90
3602;DHT22;1815;50.950;6.920;2023-06-22T00:04:44;25.60;70.20
3602;DHT22;1815;50.950;6.920;2023-06-22T00:07:10;25.60;70.30
3602;DHT22;1815;50.950;6.920;2023-06-22T00:09:36;25.60;70.40
3602;DHT22;1815;50.950;6.920;2023-06-22T00:12:02;25.60;70.60
3602;DHT22;1815;50.950;6.920;2023-06-22T00:14:28;25.50;70.60
3602;DHT22;1815;50.950;6.920;2023-06-22T00:16:53;25.50;70.80
3602;DHT22;1815;50.950;6.920;2023-06-22T00:19:23;25.50;70.80
3602;DHT22;1815;50.950;6.920;2023-06-22T00:21:50;25.50;71.00
3602;DHT22;1815;50.950;6.920;2023-06-22T00:24:21;25.50;71.10
3602;DHT22;1815;50.950;6.920;2023-06-22T00:26:48;25.50;71.30
3602;DHT22;1815;50.950;6.920;2023-06-22T00:29:15;25.50;71.30
3602;DHT22;1815;50.950;6.920;2023-06-22T00:31:40;25.50;71.40
3602;DHT22;1815;50.950;6.920;2023-06-22T00:34:06;25.50;71.40
3602;DHT22;1815;50.950;6.920;2023-06-22T00:36:35;25.50;71.70
3602;DHT22;1815;50.950;6.920;2023-06-22T00:39:02;25.50;71.80
3602;DHT22;1815;50.950;6.920;2023-06-22T00:41:29;25.50;72.00
3602;DHT22;1815;50.950;6.920;2023-06-22T00:43:55;25.50;72.10
3602;DHT22;1815;50.950;6.920;2023-06-22T00:46:22;25.50;72.30
3602;DHT22;1815;50.950;6.920;2023-06-22T00:48:48;25.50;72.50
3602;DHT22;1815;50.950;6.920;2023-06-22T00:51:14;25.50;72.70
3602;DHT22;1815;50.950;6.920;2023-06-22T00:53:40;25.50;72.90
3602;DHT22;1815;50.950;6.920;2023-06-22T00:56:07;25.50;73.30
3602;DHT22;1815;50.950;6.920;2023-06-22T00:58:36;25.40;73.30
3602;DHT22;1815;50.950;6.920;2023-06-22T01:01:02;25.40;73.50
3602;DHT22;1815;50.950;6.920;2023-06-22T01:03:28;25.40;73.60
3602;DHT22;1815;50.950;6.920;2023-06-22T01:06:00;25.40;73.70
3602;DHT22;1815;50.950;6.920;2023-06-22T01:08:51;25.40;74.20
3602;DHT22;1815;50.950;6.920;2023-06-22T01:11:36;25.40;74.20
3602;DHT22;1815;50.950;6.920;2023-06-22T01:14:08;25.40;74.30
3602;DHT22;1815;50.950;6.920;2023-06-22T01:16:40;25.40;74.60
3602;DHT22;1815;50.950;6.920;2023-06-22T01:19:29;25.40;74.70
3602;DHT22;1815;50.950;6.920;2023-06-22T01:21:58;25.30;75.00
3602;DHT22;1815;50.950;6.920;2023-06-22T01:24:45;25.30;74.60
3602;DHT22;1815;50.950;6.920;2023-06-22T01:27:33;25.30;75.10
3602;DHT22;1815;50.950;6.920;2023-06-22T01:30:03;25.30;75.20
3602;DHT22;1815;50.950;6.920;2023-06-22T01:32:34;25.30;75.00
3602;DHT22;1815;50.950;6.920;2023-06-22T01:35:04;25.30;75.20
3602;DHT22;1815;50.950;6.920;2023-06-22T01:37:31;25.30;75.40
3602;DHT22;1815;50.950;6.920;2023-06-22T01:39:58;25.20;75.50
3602;DHT22;1815;50.950;6.920;2023-06-22T01:42:25;25.30;75.60
3602;DHT22;1815;50.950;6.920;2023-06-22T01:44:55;25.30;75.80
3602;DHT22;1815;50.950;6.920;2023-06-22T01:47:22;25.20;75.90
3602;DHT22;1815;50.950;6.920;2023-06-22T01:49:49;25.20;75.90
3602;DHT22;1815;50.950;6.920;2023-06-22T01:52:17;25.20;75.90
3602;DHT22;1815;50.950;6.920;2023-06-22T01:54:43;25.20;76.00
3602;DHT22;1815;50.950;6.920;2023-06-22T01:57:09;25.20;76.20
3602;DHT22;1815;50.950;6.920;2023-06-22T02:00:03;25.20;76.50
3602;DHT22;1815;50.950;6.920;2023-06-22T02:02:50;25.20;76.60
3602;DHT22;1815;50.950;6.920;2023-06-22T02:05:18;25.20;76.70
3602;DHT22;1815;50.950;6.920;2023-06-22T02:07:59;25.20;76.70
3602;DHT22;1815;50.950;6.920;2023-06-22T02:10:29;25.10;76.80
3602;DHT22;1815;50.950;6.920;2023-06-22T02:12:57;25.20;76.80
3602;DHT22;1815;50.950;6.920;2023-06-22T02:15:25;25.10;77.00
3602;DHT22;1815;50.950;6.920;2023-06-22T02:17:53;25.10;77.20
3602;DHT22;1815;50.950;6.920;2023-06-22T02:20:20;25.10;77.40
3602;DHT22;1815;50.950;6.920;2023-06-22T02:22:46;25.10;77.60
3602;DHT22;1815;50.950;6.920;2023-06-22T02:25:12;25.10;77.60
3602;DHT22;1815;50.950;6.920;2023-06-22T02:27:37;25.10;77.70
3602;DHT22;1815;50.950;6.920;2023-06-22T02:30:07;25.10;77.90
3602;DHT22;1815;50.950;6.920;2023-06-22T02:32:34;25.10;78.10
3602;DHT22;1815;50.950;6.920;2023-06-22T02:34:59;25.10;78.20
3602;DHT22;1815;50.950;6.920;2023-06-22T02:37:25;25.10;78.20
3602;DHT22;1815;50.950;6.920;2023-06-22T02:39:55;25.00;78.40
3602;DHT22;1815;50.950;6.920;2023-06-22T02:42:21;25.00;78.50
3602;DHT22;1815;50.950;6.920;2023-06-22T02:44:48;25.00;78.70
3602;DHT22;1815;50.950;6.920;2023-06-22T02:47:15;25.00;78.90
3602;DHT22;1815;50.950;6.920;2023-06-22T02:49:41;25.00;79.20
3602;DHT22;1815;50.950;6.920;2023-06-22T02:52:07;24.90;79.40
3602;DHT22;1815;50.950;6.920;2023-06-22T02:54:33;24.90;79.40
3602;DHT22;1815;50.950;6.920;2023-06-22T02:56:59;24.90;79.60
3602;DHT22;1815;50.950;6.920;2023-06-22T02:59:29;24.90;79.80
3602;DHT22;1815;50.950;6.920;2023-06-22T03:02:01;24.90;80.00
3602;DHT22;1815;50.950;6.920;2023-06-22T03:04:30;24.80;80.10
3602;DHT22;1815;50.950;6.920;2023-06-22T03:06:57;24.80;80.50
3602;DHT22;1815;50.950;6.920;2023-06-22T03:09:28;24.80;80.90
3602;DHT22;1815;50.950;6.920;2023-06-22T03:11:56;24.70;81.00
3602;DHT22;1815;50.950;6.920;2023-06-22T03:14:25;24.70;81.20
3602;DHT22;1815;50.950;6.920;2023-06-22T03:16:52;24.70;81.40
3602;DHT22;1815;50.950;6.920;2023-06-22T03:19:19;24.60;81.60
3602;DHT22;1815;50.950;6.920;2023-06-22T03:21:47;24.60;81.90
3602;DHT22;1815;50.950;6.920;2023-06-22T03:24:12;24.60;82.40
3602;DHT22;1815;50.950;6.920;2023-06-22T03:26:38;24.60;82.60
3602;DHT22;1815;50.950;6.920;2023-06-22T03:29:04;24.60;82.80
3602;DHT22;1815;50.950;6.920;2023-06-22T03:31:30;24.60;83.00
3602;DHT22;1815;50.950;6.920;2023-06-22T03:33:57;24.60;83.20
3602;DHT22;1815;50.950;6.920;2023-06-22T03:36:23;24.60;84.20
3602;DHT22;1815;50.950;6.920;2023-06-22T03:38:50;24.60;83.50
3602;DHT22;1815;50.950;6.920;2023-06-22T03:41:16;24.60;83.80
3602;DHT22;1815;50.950;6.920;2023-06-22T03:43:42;24.60;83.90
3602;DHT22;1815;50.950;6.920;2023-06-22T03:46:08;24.60;84.00
3602;DHT22;1815;50.950;6.920;2023-06-22T03:48:34;24.60;84.10
3602;DHT22;1815;50.950;6.920;2023-06-22T03:51:01;24.60;84.40
3602;DHT22;1815;50.950;6.920;2023-06-22T03:53:27;24.60;84.50
3602;DHT22;1815;50.950;6.920;2023-06-22T03:55:53;24.60;84.70
3602;DHT22;1815;50.950;6.920;2023-06-22T03:58:19;24.60;84.80
3602;DHT22;1815;50.950;6.920;2023-06-22T04:00:50;24.60;85.00
3602;DHT22;1815;50.950;6.920;2023-06-22T04:03:16;24.60;85.20
3602;DHT22;1815;50.950;6.920;2023-06-22T04:05:44;24.60;85.20
3602;DHT22;1815;50.950;6.920;2023-06-22T04:08:12;24.60;85.40
3602;DHT22;1815;50.950;6.920;2023-06-22T04:10:38;24.70;85.90
3602;DHT22;1815;50.950;6.920;2023-06-22T04:13:04;24.70;85.90
3602;DHT22;1815;50.950;6.920;2023-06-22T04:15:29;24.60;86.20
3602;DHT22;1815;50.950;6.920;2023-06-22T04:17:55;24.70;86.50
3602;DHT22;1815;50.950;6.920;2023-06-22T04:20:22;24.70;86.70
3602;DHT22;1815;50.950;6.920;2023-06-22T04:22:47;24.70;87.00
3602;DHT22;1815;50.950;6.920;2023-06-22T04:25:13;24.80;87.20
3602;DHT22;1815;50.950;6.920;2023-06-22T04:27:39;24.80;87.30
3602;DHT22;1815;50.950;6.920;2023-06-22T04:30:08;24.90;87.50
3602;DHT22;1815;50.950;6.920;2023-06-22T04:32:35;24.90;87.60
3602;DHT22;1815;50.950;6.920;2023-06-22T04:35:04;25.00;87.90
3602;DHT22;1815;50.950;6.920;2023-06-22T04:37:33;25.00;88.10
3602;DHT22;1815;50.950;6.920;2023-06-22T04:39:59;25.10;88.20
3602;DHT22;1815;50.950;6.920;2023-06-22T04:42:28;25.10;88.40
3602;DHT22;1815;50.950;6.920;2023-06-22T04:44:54;25.10;88.80
3602;DHT22;1815;50.950;6.920;2023-06-22T04:47:20;25.10;88.90
3602;DHT22;1815;50.950;6.920;2023-06-22T04:49:45;25.20;89.50
3602;DHT22;1815;50.950;6.920;2023-06-22T04:52:12;25.10;89.60
3602;DHT22;1815;50.950;6.920;2023-06-22T04:54:39;25.10;90.20
3602;DHT22;1815;50.950;6.920;2023-06-22T04:57:13;25.10;90.30
3602;DHT22;1815;50.950;6.920;2023-06-22T04:59:39;25.10;90.60
3602;DHT22;1815;50.950;6.920;2023-06-22T05:02:07;25.10;90.80
3602;DHT22;1815;50.950;6.920;2023-06-22T05:04:33;25.10;91.00
3602;DHT22;1815;50.950;6.920;2023-06-22T05:07:02;25.10;91.20
3602;DHT22;1815;50.950;6.920;2023-06-22T05:09:29;25.10;91.30
3602;DHT22;1815;50.950;6.920;2023-06-22T05:11:55;25.10;91.50
3602;DHT22;1815;50.950;6.920;2023-06-22T05:14:22;25.20;91.80
3602;DHT22;1815;50.950;6.920;2023-06-22T05:16:49;25.10;91.90
3602;DHT22;1815;50.950;6.920;2023-06-22T05:19:17;25.20;92.20
3602;DHT22;1815;50.950;6.920;2023-06-22T05:21:43;25.20;92.60
3602;DHT22;1815;50.950;6.920;2023-06-22T05:24:08;25.20;92.70
3602;DHT22;1815;50.950;6.920;2023-06-22T05:26:34;25.20;93.00
3602;DHT22;1815;50.950;6.920;2023-06-22T05:29:02;25.30;93.30
3602;DHT22;1815;50.950;6.920;2023-06-22T05:31:28;25.30;93.50
3602;DHT22;1815;50.950;6.920;2023-06-22T05:33:55;25.30;93.60
3602;DHT22;1815;50.950;6.920;2023-06-22T05:36:21;25.40;93.80
3602;DHT22;1815;50.950;6.920;2023-06-22T05:38:51;25.40;93.90
3602;DHT22;1815;50.950;6.920;2023-06-22T05:41:16;25.50;94.30
3602;DHT22;1815;50.950;6.920;2023-06-22T05:43:42;25.50;94.30
3602;DHT22;1815;50.950;6.920;2023-06-22T05:46:08;25.60;94.40
3602;DHT22;1815;50.950;6.920;2023-06-22T05:48:34;25.70;94.50
3602;DHT22;1815;50.950;6.920;2023-06-22T05:51:00;25.70;94.60
3602;DHT22;1815;50.950;6.920;2023-06-22T05:53:26;25.90;95.10
3602;DHT22;1815;50.950;6.920;2023-06-22T05:55:52;26.00;94.90
3602;DHT22;1815;50.950;6.920;2023-06-22T05:58:18;26.00;94.90
3602;DHT22;1815;50.950;6.920;2023-06-22T06:00:44;26.20;95.40
3602;DHT22;1815;50.950;6.920;2023-06-22T06:03:10;26.30;95.20
3602;DHT22;1815;50.950;6.920;2023-06-22T06:05:36;26.80;95.80
3602;DHT22;1815;50.950;6.920;2023-06-22T06:08:04;27.20;95.80
3602;DHT22;1815;50.950;6.920;2023-06-22T06:10:31;27.70;95.70
3602;DHT22;1815;50.950;6.920;2023-06-22T06:12:57;28.50;95.90
3602;DHT22;1815;50.950;6.920;2023-06-22T06:15:23;29.20;95.50
3602;DHT22;1815;50.950;6.920;2023-06-22T06:17:53;29.70;94.70
3602;DHT22;1815;50.950;6.920;2023-06-22T06:20:22;30.10;93.00
3602;DHT22;1815;50.950;6.920;2023-06-22T06:22:49;30.40;92.50
3602;DHT22;1815;50.950;6.920;2023-06-22T06:25:15;30.50;91.40
3602;DHT22;1815;50.950;6.920;2023-06-22T06:27:44;30.50;91.10
3602;DHT22;1815;50.950;6.920;2023-06-22T06:30:12;30.50;90.70
3602;DHT22;1815;50.950;6.920;2023-06-22T06:32:38;30.50;90.60
3602;DHT22;1815;50.950;6.920;2023-06-22T06:35:06;30.50;89.80
3602;DHT22;1815;50.950;6.920;2023-06-22T06:37:36;30.30;89.60
3602;DHT22;1815;50.950;6.920;2023-06-22T06:40:04;30.20;90.10
3602;DHT22;1815;50.950;6.920;2023-06-22T06:42:31;30.50;90.50
3602;DHT22;1815;50.950;6.920;2023-06-22T06:44:57;30.70;90.60
3602;DHT22;1815;50.950;6.920;2023-06-22T06:47:23;30.90;90.30
3602;DHT22;1815;50.950;6.920;2023-06-22T06:49:48;31.00;90.00
3602;DHT22;1815;50.950;6.920;2023-06-22T06:52:14;31.10;89.60
3602;DHT22;1815;50.950;6.920;2023-06-22T06:54:40;31.30;89.40
3602;DHT22;1815;50.950;6.920;2023-06-22T06:57:08;31.60;89.30
3602;DHT22;1815;50.950;6.920;2023-06-22T06:59:36;31.80;88.60
3602;DHT22;1815;50.950;6.920;2023-06-22T07:02:02;31.80;87.40
3602;DHT22;1815;50.950;6.920;2023-06-22T07:04:27;31.90;86.50
3602;DHT22;1815;50.950;6.920;2023-06-22T07:06:53;31.80;86.00
3602;DHT22;1815;50.950;6.920;2023-06-22T07:09:19;31.80;85.30
3602;DHT22;1815;50.950;6.920;2023-06-22T07:11:44;31.70;85.10
3602;DHT22;1815;50.950;6.920;2023-06-22T07:14:10;31.50;84.80
3602;DHT22;1815;50.950;6.920;2023-06-22T07:16:36;31.50;84.80
3602;DHT22;1815;50.950;6.920;2023-06-22T07:19:01;31.60;85.80
3602;DHT22;1815;50.950;6.920;2023-06-22T07:21:27;32.00;87.40
3602;DHT22;1815;50.950;6.920;2023-06-22T07:23:53;32.60;87.70
3602;DHT22;1815;50.950;6.920;2023-06-22T07:26:19;33.30;88.60
3602;DHT22;1815;50.950;6.920;2023-06-22T07:28:45;34.00;86.70
3602;DHT22;1815;50.950;6.920;2023-06-22T07:31:11;34.70;86.00
3602;DHT22;1815;50.950;6.920;2023-06-22T07:33:36;35.10;83.60
3602;DHT22;1815;50.950;6.920;2023-06-22T07:36:02;35.60;79.20
3602;DHT22;1815;50.950;6.920;2023-06-22T07:38:33;36.10;79.00
3602;DHT22;1815;50.950;6.920;2023-06-22T07:40:59;36.30;74.90
3602;DHT22;1815;50.950;6.920;2023-06-22T07:43:25;36.30;73.10
3602;DHT22;1815;50.950;6.920;2023-06-22T07:45:51;36.10;69.90
3602;DHT22;1815;50.950;6.920;2023-06-22T07:48:23;36.00;69.00
3602;DHT22;1815;50.950;6.920;2023-06-22T07:50:49;35.70;65.30
3602;DHT22;1815;50.950;6.920;2023-06-22T07:53:15;35.60;67.10
3602;DHT22;1815;50.950;6.920;2023-06-22T07:55:41;35.70;67.70
3602;DHT22;1815;50.950;6.920;2023-06-22T07:58:06;36.10;68.30
3602;DHT22;1815;50.950;6.920;2023-06-22T08:00:33;36.50;67.80
3602;DHT22;1815;50.950;6.920;2023-06-22T08:03:00;37.10;68.40
3602;DHT22;1815;50.950;6.920;2023-06-22T08:05:28;37.80;67.80
3602;DHT22;1815;50.950;6.920;2023-06-22T08:07:55;38.40;65.20
3602;DHT22;1815;50.950;6.920;2023-06-22T08:10:21;38.90;63.50
3602;DHT22;1815;50.950;6.920;2023-06-22T08:12:47;39.50;62.90
3602;DHT22;1815;50.950;6.920;2023-06-22T08:15:12;40.10;60.90
3602;DHT22;1815;50.950;6.920;2023-06-22T08:17:39;40.70;59.60
3602;DHT22;1815;50.950;6.920;2023-06-22T08:20:06;41.10;57.70
3602;DHT22;1815;50.950;6.920;2023-06-22T08:22:35;41.50;55.40
3602;DHT22;1815;50.950;6.920;2023-06-22T08:25:02;41.90;55.10
3602;DHT22;1815;50.950;6.920;2023-06-22T08:27:30;42.20;53.70
3602;DHT22;1815;50.950;6.920;2023-06-22T08:29:57;42.60;53.00
3602;DHT22;1815;50.950;6.920;2023-06-22T08:32:28;43.00;52.20
3602;DHT22;1815;50.950;6.920;2023-06-22T08:34:55;43.30;50.60
3602;DHT22;1815;50.950;6.920;2023-06-22T08:37:21;43.30;49.40
3602;DHT22;1815;50.950;6.920;2023-06-22T08:39:49;43.20;48.50
3602;DHT22;1815;50.950;6.920;2023-06-22T08:42:16;43.00;47.50
3602;DHT22;1815;50.950;6.920;2023-06-22T08:44:41;42.80;47.90
3602;DHT22;1815;50.950;6.920;2023-06-22T08:47:07;42.70;47.60
3602;DHT22;1815;50.950;6.920;2023-06-22T08:49:33;42.50;46.90
3602;DHT22;1815;50.950;6.920;2023-06-22T08:51:58;42.40;46.90
3602;DHT22;1815;50.950;6.920;2023-06-22T08:54:24;42.20;46.50
3602;DHT22;1815;50.950;6.920;2023-06-22T08:56:50;42.10;46.50
3602;DHT22;1815;50.950;6.920;2023-06-22T08:59:16;42.00;46.40
3602;DHT22;1815;50.950;6.920;2023-06-22T09:01:41;41.90;45.40
3602;DHT22;1815;50.950;6.920;2023-06-22T09:04:11;41.30;45.00
3602;DHT22;1815;50.950;6.920;2023-06-22T09:06:37;40.90;45.50
3602;DHT22;1815;50.950;6.920;2023-06-22T09:09:10;40.60;45.20
3602;DHT22;1815;50.950;6.920;2023-06-22T09:11:36;40.30;46.10
3602;DHT22;1815;50.950;6.920;2023-06-22T09:14:02;40.10;46.50
3602;DHT22;1815;50.950;6.920;2023-06-22T09:16:29;40.00;47.00
3602;DHT22;1815;50.950;6.920;2023-06-22T09:18:55;39.80;46.40
3602;DHT22;1815;50.950;6.920;2023-06-22T09:21:21;39.60;46.60
3602;DHT22;1815;50.950;6.920;2023-06-22T09:23:47;39.40;46.90
3602;DHT22;1815;50.950;6.920;2023-06-22T09:26:17;39.30;47.40
3602;DHT22;1815;50.950;6.920;2023-06-22T09:28:43;39.20;47.10
3602;DHT22;1815;50.950;6.920;2023-06-22T09:31:09;39.00;47.30
3602;DHT22;1815;50.950;6.920;2023-06-22T09:33:39;38.80;46.90
3602;DHT22;1815;50.950;6.920;2023-06-22T09:36:05;38.60;46.80
3602;DHT22;1815;50.950;6.920;2023-06-22T09:38:38;38.20;46.70
3602;DHT22;1815;50.950;6.920;2023-06-22T09:41:04;37.80;46.90
3602;DHT22;1815;50.950;6.920;2023-06-22T09:43:32;37.30;47.20
3602;DHT22;1815;50.950;6.920;2023-06-22T09:45:58;36.80;47.30
3602;DHT22;1815;50.950;6.920;2023-06-22T09:48:23;36.60;48.30
3602;DHT22;1815;50.950;6.920;2023-06-22T09:50:49;36.60;48.90
3602;DHT22;1815;50.950;6.920;2023-06-22T09:53:15;36.70;49.60
3602;DHT22;1815;50.950;6.920;2023-06-22T09:55:41;36.70;49.10
3602;DHT22;1815;50.950;6.920;2023-06-22T09:58:06;36.60;49.30
3602;DHT22;1815;50.950;6.920;2023-06-22T10:00:32;36.50;49.10
3602;DHT22;1815;50.950;6.920;2023-06-22T10:02:57;36.20;48.70
3602;DHT22;1815;50.950;6.920;2023-06-22T10:05:23;35.80;48.70
3602;DHT22;1815;50.950;6.920;2023-06-22T10:07:50;35.50;49.00
3602;DHT22;1815;50.950;6.920;2023-06-22T10:10:16;35.10;49.20
3602;DHT22;1815;50.950;6.920;2023-06-22T10:12:47;34.60;49.60
3602;DHT22;1815;50.950;6.920;2023-06-22T10:15:15;34.10;50.40
3602;DHT22;1815;50.950;6.920;2023-06-22T10:17:41;33.70;50.30
3602;DHT22;1815;50.950;6.920;2023-06-22T10:20:07;33.30;50.70
3602;DHT22;1815;50.950;6.920;2023-06-22T10:22:40;32.90;51.30
3602;DHT22;1815;50.950;6.920;2023-06-22T10:25:07;32.40;51.90
3602;DHT22;1815;50.950;6.920;2023-06-22T10:27:33;32.10;52.50
3602;DHT22;1815;50.950;6.920;2023-06-22T10:29:58;31.90;53.50
3602;DHT22;1815;50.950;6.920;2023-06-22T10:32:24;31.50;54.30
3602;DHT22;1815;50.950;6.920;2023-06-22T10:34:50;31.20;55.30
3602;DHT22;1815;50.950;6.920;2023-06-22T10:37:15;30.80;56.30
3602;DHT22;1815;50.950;6.920;2023-06-22T10:39:41;30.50;57.10
3602;DHT22;1815;50.950;6.920;2023-06-22T10:42:07;30.20;57.60
3602;DHT22;1815;50.950;6.920;2023-06-22T10:44:33;29.90;58.70
3602;DHT22;1815;50.950;6.920;2023-06-22T10:46:59;29.60;59.90
3602;DHT22;1815;50.950;6.920;2023-06-22T10:49:24;29.30;61.40
3602;DHT22;1815;50.950;6.920;2023-06-22T10:51:50;29.00;63.50
3602;DHT22;1815;50.950;6.920;2023-06-22T10:54:16;28.70;64.90
3602;DHT22;1815;50.950;6.920;2023-06-22T10:56:43;28.30;67.80
3602;DHT22;1815;50.950;6.920;2023-06-22T10:59:09;28.00;70.90
3602;DHT22;1815;50.950;6.920;2023-06-22T11:01:35;27.70;75.00
3602;DHT22;1815;50.950;6.920;2023-06-22T11:04:01;27.50;79.00
3602;DHT22;1815;50.950;6.920;2023-06-22T11:06:27;27.30;82.30
3602;DHT22;1815;50.950;6.920;2023-06-22T11:08:52;27.10;85.40
3602;DHT22;1815;50.950;6.920;2023-06-22T11:11:18;26.90;88.80
3602;DHT22;1815;50.950;6.920;2023-06-22T11:13:44;26.60;91.00
3602;DHT22;1815;50.950;6.920;2023-06-22T11:16:10;26.40;92.30
3602;DHT22;1815;50.950;6.920;2023-06-22T11:18:36;26.20;93.50
3602;DHT22;1815;50.950;6.920;2023-06-22T11:21:04;26.00;95.00
3602;DHT22;1815;50.950;6.920;2023-06-22T11:23:30;25.80;96.70
3602;DHT22;1815;50.950;6.920;2023-06-22T11:25:56;25.70;97.70
3602;DHT22;1815;50.950;6.920;2023-06-22T11:28:21;25.70;99.20
3602;DHT22;1815;50.950;6.920;2023-06-22T11:30:47;25.60;99.90
3602;DHT22;1815;50.950;6.920;2023-06-22T11:33:13;25.70;99.90
3602;DHT22;1815;50.950;6.920;2023-06-22T11:35:39;25.70;99.90
3602;DHT22;1815;50.950;6.920;2023-06-22T11:38:05;25.70;99.90
3602;DHT22;1815;50.950;6.920;2023-06-22T11:40:31;25.80;99.90
3602;DHT22;1815;50.950;6.920;2023-06-22T11:42:56;25.80;99.90
3602;DHT22;1815;50.950;6.920;2023-06-22T11:45:22;25.80;99.90
3602;DHT22;1815;50.950;6.920;2023-06-22T11:47:48;25.80;99.90
3602;DHT22;1815;50.950;6.920;2023-06-22T11:50:14;25.80;99.90
3602;DHT22;1815;50.950;6.920;2023-06-22T11:52:39;25.80;99.90
3602;DHT22;1815;50.950;6.920;2023-06-22T11:55:05;25.80;99.90
3602;DHT22;1815;50.950;6.920;2023-06-22T11:57:51;25.80;99.90
3602;DHT22;1815;50.950;6.920;2023-06-22T12:00:18;26.00;99.90
3602;DHT22;1815;50.950;6.920;2023-06-22T12:02:44;26.10;99.90
3602;DHT22;1815;50.950;6.920;2023-06-22T12:05:11;26.30;99.90
3602;DHT22;1815;50.950;6.920;2023-06-22T12:07:36;26.50;99.90
3602;DHT22;1815;50.950;6.920;2023-06-22T12:10:03;26.80;99.90
3602;DHT22;1815;50.950;6.920;2023-06-22T12:12:29;27.00;99.90
3602;DHT22;1815;50.950;6.920;2023-06-22T12:14:55;27.20;99.90
3602;DHT22;1815;50.950;6.920;2023-06-22T12:17:20;27.40;99.90
3602;DHT22;1815;50.950;6.920;2023-06-22T12:19:46;27.60;99.90
3602;DHT22;1815;50.950;6.920;2023-06-22T12:22:12;27.70;99.90
3602;DHT22;1815;50.950;6.920;2023-06-22T12:24:38;27.80;99.90
3602;DHT22;1815;50.950;6.920;2023-06-22T12:27:04;27.80;99.90
3602;DHT22;1815;50.950;6.920;2023-06-22T12:29:30;27.80;99.90
3602;DHT22;1815;50.950;6.920;2023-06-22T12:31:55;27.80;99.90
3602;DHT22;1815;50.950;6.920;2023-06-22T12:34:21;27.80;99.90
3602;DHT22;1815;50.950;6.920;2023-06-22T12:36:47;27.80;99.90
3602;DHT22;1815;50.950;6.920;2023-06-22T12:39:14;28.00;99.90
3602;DHT22;1815;50.950;6.920;2023-06-22T12:41:39;28.10;99.90
3602;DHT22;1815;50.950;6.920;2023-06-22T12:44:05;28.20;99.90
3602;DHT22;1815;50.950;6.920;2023-06-22T12:46:31;28.40;99.90
3602;DHT22;1815;50.950;6.920;2023-06-22T12:49:03;28.50;99.90
3602;DHT22;1815;50.950;6.920;2023-06-22T12:51:32;28.70;99.90
3602;DHT22;1815;50.950;6.920;2023-06-22T12:53:58;28.80;99.90
3602;DHT22;1815;50.950;6.920;2023-06-22T12:56:26;28.90;99.90
3602;DHT22;1815;50.950;6.920;2023-06-22T12:58:51;28.90;99.90
3602;DHT22;1815;50.950;6.920;2023-06-22T13:01:17;28.90;99.90
3602;DHT22;1815;50.950;6.920;2023-06-22T13:03:43;29.00;99.90
3602;DHT22;1815;50.950;6.920;2023-06-22T13:06:09;29.10;99.90
3602;DHT22;1815;50.950;6.920;2023-06-22T13:08:35;29.20;99.90
3602;DHT22;1815;50.950;6.920;2023-06-22T13:11:01;29.40;99.90
3602;DHT22;1815;50.950;6.920;2023-06-22T13:13:27;29.40;99.90
3602;DHT22;1815;50.950;6.920;2023-06-22T13:15:53;29.50;99.90
3602;DHT22;1815;50.950;6.920;2023-06-22T13:18:19;29.70;99.90
3602;DHT22;1815;50.950;6.920;2023-06-22T13:20:45;29.80;99.90
3602;DHT22;1815;50.950;6.920;2023-06-22T13:23:11;29.90;99.90
3602;DHT22;1815;50.950;6.920;2023-06-22T13:25:37;30.00;99.90
3602;DHT22;1815;50.950;6.920;2023-06-22T13:28:03;30.10;99.90
3602;DHT22;1815;50.950;6.920;2023-06-22T13:30:29;30.20;99.90
3602;DHT22;1815;50.950;6.920;2023-06-22T13:32:56;30.30;99.90
3602;DHT22;1815;50.950;6.920;2023-06-22T13:35:21;30.30;99.90
3602;DHT22;1815;50.950;6.920;2023-06-22T13:37:48;30.30;99.90
3602;DHT22;1815;50.950;6.920;2023-06-22T13:40:14;30.30;99.90
3602;DHT22;1815;50.950;6.920;2023-06-22T13:42:41;30.40;99.90
3602;DHT22;1815;50.950;6.920;2023-06-22T13:45:08;30.50;99.90
3602;DHT22;1815;50.950;6.920;2023-06-22T13:47:34;30.50;99.90
3602;DHT22;1815;50.950;6.920;2023-06-22T13:49:59;30.60;99.90
3602;DHT22;1815;50.950;6.920;2023-06-22T13:52:25;30.70;99.90
3602;DHT22;1815;50.950;6.920;2023-06-22T13:54:52;30.80;99.90
3602;DHT22;1815;50.950;6.920;2023-06-22T13:57:18;31.00;99.90
3602;DHT22;1815;50.950;6.920;2023-06-22T13:59:43;31.10;99.90
3602;DHT22;1815;50.950;6.920;2023-06-22T14:02:09;31.20;99.90
3602;DHT22;1815;50.950;6.920;2023-06-22T14:04:35;31.30;99.90
3602;DHT22;1815;50.950;6.920;2023-06-22T14:07:01;31.40;99.90
3602;DHT22;1815;50.950;6.920;2023-06-22T14:09:26;31.40;99.90
3602;DHT22;1815;50.950;6.920;2023-06-22T14:11:54;31.40;99.90
3602;DHT22;1815;50.950;6.920;2023-06-22T14:14:20;31.40;99.90
3602;DHT22;1815;50.950;6.920;2023-06-22T14:16:46;31.40;99.90
3602;DHT22;1815;50.950;6.920;2023-06-22T14:19:13;31.40;99.90
3602;DHT22;1815;50.950;6.920;2023-06-22T14:21:38;31.40;99.90
3602;DHT22;1815;50.950;6.920;2023-06-22T14:24:04;31.30;99.90
3602;DHT22;1815;50.950;6.920;2023-06-22T14:26:30;31.30;99.90
3602;DHT22;1815;50.950;6.920;2023-06-22T14:28:56;31.20;99.90
3602;DHT22;1815;50.950;6.920;2023-06-22T14:31:22;31.10;99.90
3602;DHT22;1815;50.950;6.920;2023-06-22T14:33:49;31.00;99.90
3602;DHT22;1815;50.950;6.920;2023-06-22T14:36:15;30.90;99.90
3602;DHT22;1815;50.950;6.920;2023-06-22T14:38:42;30.90;99.90
3602;DHT22;1815;50.950;6.920;2023-06-22T14:41:08;30.90;99.90
3602;DHT22;1815;50.950;6.920;2023-06-22T14:43:34;30.80;99.90
3602;DHT22;1815;50.950;6.920;2023-06-22T14:46:00;30.70;99.90
3602;DHT22;1815;50.950;6.920;2023-06-22T14:48:26;30.60;99.90
3602;DHT22;1815;50.950;6.920;2023-06-22T14:50:53;30.50;99.90
3602;DHT22;1815;50.950;6.920;2023-06-22T14:53:19;30.40;99.90
3602;DHT22;1815;50.950;6.920;2023-06-22T14:55:46;30.30;99.90
3602;DHT22;1815;50.950;6.920;2023-06-22T14:58:11;30.20;99.90
3602;DHT22;1815;50.950;6.920;2023-06-22T15:00:37;30.10;99.90
3602;DHT22;1815;50.950;6.920;2023-06-22T15:03:04;29.90;99.90
3602;DHT22;1815;50.950;6.920;2023-06-22T15:05:32;29.70;99.90
3602;DHT22;1815;50.950;6.920;2023-06-22T15:07:58;29.50;99.90
3602;DHT22;1815;50.950;6.920;2023-06-22T15:10:24;29.10;99.90
3602;DHT22;1815;50.950;6.920;2023-06-22T15:12:50;28.90;99.90
3602;DHT22;1815;50.950;6.920;2023-06-22T15:15:15;28.60;99.90
3602;DHT22;1815;50.950;6.920;2023-06-22T15:17:41;28.20;99.90
3602;DHT22;1815;50.950;6.920;2023-06-22T15:20:07;27.80;99.90
3602;DHT22;1815;50.950;6.920;2023-06-22T15:22:33;27.50;99.90
3602;DHT22;1815;50.950;6.920;2023-06-22T15:24:59;27.20;99.90
3602;DHT22;1815;50.950;6.920;2023-06-22T15:27:24;26.90;99.90
3602;DHT22;1815;50.950;6.920;2023-06-22T15:29:50;26.50;99.90
3602;DHT22;1815;50.950;6.920;2023-06-22T15:32:16;26.20;99.90
3602;DHT22;1815;50.950;6.920;2023-06-22T15:34:43;25.90;99.90
3602;DHT22;1815;50.950;6.920;2023-06-22T15:37:08;25.60;99.90
3602;DHT22;1815;50.950;6.920;2023-06-22T15:39:34;25.40;99.90
3602;DHT22;1815;50.950;6.920;2023-06-22T15:42:00;25.20;99.90
3602;DHT22;1815;50.950;6.920;2023-06-22T15:44:27;25.00;99.90
3602;DHT22;1815;50.950;6.920;2023-06-22T15:46:52;24.90;99.90
3602;DHT22;1815;50.950;6.920;2023-06-22T15:49:18;24.70;99.90
3602;DHT22;1815;50.950;6.920;2023-06-22T15:51:44;24.60;99.90
3602;DHT22;1815;50.950;6.920;2023-06-22T15:54:11;24.50;99.90
3602;DHT22;1815;50.950;6.920;2023-06-22T15:56:37;24.40;99.90
3602;DHT22;1815;50.950;6.920;2023-06-22T15:59:03;24.30;99.90
3602;DHT22;1815;50.950;6.920;2023-06-22T16:01:29;24.30;99.90